Fayetteville, Pope Air Force Base (KPOB)

NamePope Air Force Base
CityFayetteville
CountryUnited States
ICAOKPOB
IATA
Altitude66 m
CoordinatesGoogle Map
Live Air TrafficLiveATC.net
METARKPOB 171201Z AUTO 00000KT 5SM BR OVC002 23/23 A3000 RMK AO2 SLP160 $
2019-08-17 12:01:00 Wind: North (0°) 0 m/s - Visibility: 8046.7 m - Weather: Mist - Temperature: 23 °C - Dew point: 23 °C - Humidity: 100% - Pressure: 1015.92 hPa

Sorry, no flights used the airport in this database.